createdAt,value
2022-11-01T00:00:08.023Z,100281.63
2022-11-01T00:05:14.368Z,100293.59
2022-11-01T00:15:22.594Z,100295.19
2022-11-01T00:20:24.119Z,100309.47
2022-11-01T00:25:25.654Z,100324.09
2022-11-01T00:30:27.234Z,100333.25
2022-11-01T00:35:29.083Z,100337.94
2022-11-01T00:40:30.753Z,100358.09
2022-11-01T00:45:32.353Z,100352.78
2022-11-01T00:50:33.895Z,100340.09
2022-11-01T00:55:35.432Z,100324.47
2022-11-01T01:00:37.154Z,100326.00
2022-11-01T01:05:38.710Z,100321.22
2022-11-01T01:10:40.369Z,100312.75
2022-11-01T01:15:42.175Z,100309.78
2022-11-01T01:20:43.971Z,100310.56
2022-11-01T01:25:45.516Z,100297.25
2022-11-01T01:30:47.061Z,100287.97
2022-11-01T01:35:48.616Z,100287.34
2022-11-01T01:40:50.152Z,100296.19
2022-11-01T01:45:51.682Z,100308.28
2022-11-01T01:50:57.155Z,100305.94
2022-11-01T01:56:04.783Z,100308.00
2022-11-01T02:01:06.803Z,100298.25
2022-11-01T02:06:14.583Z,100307.44
2022-11-01T02:11:17.730Z,100312.81
2022-11-01T02:16:24.797Z,100312.09
2022-11-01T02:21:55.440Z,100328.56
2022-11-01T02:27:08.406Z,100344.06
2022-11-01T02:32:19.119Z,100367.13
2022-11-01T02:37:34.693Z,100366.41
2022-11-01T02:42:43.828Z,100347.94
2022-11-01T02:47:45.493Z,100355.94
2022-11-01T02:52:47.828Z,100357.38
2022-11-01T02:57:49.450Z,100359.16
2022-11-01T03:02:55.390Z,100362.06
2022-11-01T03:08:05.219Z,100357.50
2022-11-01T03:13:32.580Z,100354.03
2022-11-01T03:18:39.562Z,100375.81
2022-11-01T03:23:55.939Z,100384.66
2022-11-01T03:29:02.858Z,100403.84
2022-11-01T03:34:11.131Z,100403.00
2022-11-01T03:39:22.421Z,100407.53
2022-11-01T03:44:25.816Z,100423.03
2022-11-01T03:49:27.378Z,100436.91
2022-11-01T03:54:29.259Z,100461.00
2022-11-01T03:59:30.859Z,100473.16
2022-11-01T04:04:32.394Z,100481.31
2022-11-01T04:09:33.923Z,100514.59
2022-11-01T04:14:54.140Z,100498.97
2022-11-01T04:20:14.465Z,100490.84
2022-11-01T04:25:16.129Z,100494.06
2022-11-01T04:30:20.328Z,100489.19
2022-11-01T04:35:23.005Z,100495.72
2022-11-01T04:40:25.499Z,100508.13
2022-11-01T04:45:27.092Z,100513.78
2022-11-01T04:50:28.988Z,100506.16
2022-11-01T04:55:30.896Z,100508.44
2022-11-01T05:00:33.446Z,100510.09
2022-11-01T05:05:35.695Z,100509.16
2022-11-01T05:10:40.966Z,100492.09
2022-11-01T05:15:59.272Z,100514.28
2022-11-01T05:21:04.106Z,100483.50
2022-11-01T05:26:06.017Z,100503.78
2022-11-01T05:31:07.592Z,100512.47
2022-11-01T05:36:09.386Z,100509.94
2022-11-01T05:46:19.663Z,100522.00
2022-11-01T05:51:21.352Z,100539.72
2022-11-01T05:56:22.930Z,100544.66
2022-11-01T06:01:24.753Z,100553.16
2022-11-01T06:06:26.318Z,100544.81
2022-11-01T06:11:27.876Z,100556.22
2022-11-01T06:16:29.473Z,100559.44
2022-11-01T06:21:31.024Z,100574.91
2022-11-01T06:26:32.575Z,100584.22
2022-11-01T06:31:34.132Z,100594.63
2022-11-01T06:36:35.694Z,100610.78
2022-11-01T06:41:37.240Z,100622.50
2022-11-01T06:46:38.877Z,100650.47
2022-11-01T06:51:40.415Z,100661.97
2022-11-01T06:56:42.010Z,100664.97
2022-11-01T07:01:44.306Z,100673.59
2022-11-01T07:06:46.127Z,100687.34
2022-11-01T07:11:47.687Z,100698.34
2022-11-01T07:16:49.308Z,100702.53
2022-11-01T07:21:50.862Z,100714.00
2022-11-01T07:26:52.498Z,100731.63
2022-11-01T07:31:54.059Z,100731.13
2022-11-01T07:36:55.574Z,100734.63
2022-11-01T07:42:03.874Z,100742.28
2022-11-01T07:47:05.431Z,100759.25
2022-11-01T07:52:06.983Z,100763.50
2022-11-01T07:57:09.279Z,100776.03
2022-11-01T08:02:10.949Z,100781.34
2022-11-01T08:07:12.629Z,100786.41
2022-11-01T08:12:14.160Z,100791.03
2022-11-01T08:17:15.681Z,100779.16
2022-11-01T08:22:17.221Z,100774.13
2022-11-01T08:27:18.777Z,100764.78
2022-11-01T08:32:23.088Z,100756.69
2022-11-01T08:37:26.994Z,100737.13
2022-11-01T08:42:28.539Z,100716.94
2022-11-01T08:47:30.082Z,100708.81
2022-11-01T08:52:31.767Z,100685.47
2022-11-01T08:57:33.831Z,100673.63
2022-11-01T09:02:35.532Z,100667.84
2022-11-01T09:07:38.091Z,100669.81
2022-11-01T09:17:42.280Z,100688.06
2022-11-01T09:22:43.852Z,100690.09
2022-11-01T09:27:45.382Z,100701.19
2022-11-01T09:32:46.962Z,100700.50
2022-11-01T09:37:48.496Z,100707.47
2022-11-01T09:42:50.470Z,100708.94
2022-11-01T09:47:54.622Z,100709.81
2022-11-01T09:52:57.340Z,100710.28
2022-11-01T09:58:06.778Z,100737.75
2022-11-01T10:03:45.350Z,100785.34
2022-11-01T10:09:24.439Z,100794.13
2022-11-01T10:14:49.928Z,100821.09
2022-11-01T10:19:51.505Z,100835.13
2022-11-01T10:24:59.122Z,100849.41
2022-11-01T10:30:14.262Z,100855.81
2022-11-01T10:35:21.468Z,100866.13
2022-11-01T10:40:35.535Z,100868.56
2022-11-01T10:45:37.747Z,100875.41
2022-11-01T10:50:39.422Z,100874.84
2022-11-01T10:55:58.897Z,100887.09
2022-11-01T11:01:07.102Z,100883.06
2022-11-01T11:06:11.942Z,100877.88
2022-11-01T11:11:18.605Z,100880.09
2022-11-01T11:16:33.351Z,100884.22
2022-11-01T11:21:35.804Z,100915.75
2022-11-01T11:26:39.248Z,100915.75
2022-11-01T11:31:41.754Z,100916.69
2022-11-01T11:36:46.749Z,100904.94
2022-11-01T11:41:48.313Z,100936.41
2022-11-01T11:46:58.954Z,100933.53
2022-11-01T11:52:00.531Z,100964.97
2022-11-01T11:57:24.906Z,100993.66
2022-11-01T12:02:47.896Z,101001.78
2022-11-01T12:07:51.935Z,101006.78
2022-11-01T12:12:54.436Z,101026.59
2022-11-01T12:17:56.568Z,101029.88
2022-11-01T12:23:11.499Z,101022.19
2022-11-01T12:28:22.198Z,101047.53
2022-11-01T12:33:30.674Z,101043.13
2022-11-01T12:38:47.147Z,101031.84
2022-11-01T12:44:05.762Z,101060.66
2022-11-01T12:49:37.804Z,101049.31
2022-11-01T12:55:01.983Z,100999.81
2022-11-01T13:00:07.692Z,101057.91
2022-11-01T13:06:01.831Z,101039.28
2022-11-01T13:11:18.356Z,101056.38
2022-11-01T13:16:28.935Z,101064.75
2022-11-01T13:21:44.421Z,101067.78
2022-11-01T13:26:59.959Z,101068.09
2022-11-01T13:32:15.864Z,101081.59
2022-11-01T13:37:25.463Z,101068.03
2022-11-01T13:42:36.763Z,101039.63
2022-11-01T13:48:07.051Z,101002.72
2022-11-01T13:53:23.490Z,101004.13
2022-11-01T13:58:25.946Z,101039.84
2022-11-01T14:03:34.998Z,101046.56
2022-11-01T14:08:42.145Z,101038.72
2022-11-01T14:13:47.763Z,100992.63
2022-11-01T14:19:02.663Z,100933.38
2022-11-01T14:24:22.243Z,100888.69
2022-11-01T14:29:23.913Z,100828.59
2022-11-01T14:34:31.983Z,100805.84
2022-11-01T14:39:44.696Z,100772.28
2022-11-01T14:44:51.435Z,100756.97
2022-11-01T14:49:57.998Z,100740.34
2022-11-01T14:55:10.302Z,100722.75
2022-11-01T15:00:29.779Z,100710.34
2022-11-01T15:05:53.735Z,100693.28
2022-11-01T15:10:57.412Z,100688.56
2022-11-01T15:16:16.605Z,100670.31
2022-11-01T15:21:24.177Z,100661.75
2022-11-01T15:26:32.783Z,100647.66
2022-11-01T15:31:35.744Z,100647.84
2022-11-01T15:36:39.324Z,100624.25
2022-11-01T15:41:40.935Z,100615.91
2022-11-01T15:46:43.304Z,100617.72
2022-11-01T15:51:59.979Z,100616.28
2022-11-01T15:57:09.495Z,100614.50
2022-11-01T16:02:22.596Z,100614.25
2022-11-01T16:07:26.442Z,100616.56
2022-11-01T16:12:32.082Z,100614.81
2022-11-01T16:17:39.997Z,100606.09
2022-11-01T16:22:41.521Z,100606.69
2022-11-01T16:27:54.635Z,100602.53
2022-11-01T16:33:12.344Z,100613.38
2022-11-01T16:38:43.493Z,100628.09
2022-11-01T16:43:45.352Z,100639.84
2022-11-01T16:48:51.926Z,100656.38
2022-11-01T16:53:55.095Z,100661.38
2022-11-01T16:59:00.081Z,100677.91
2022-11-01T17:04:02.272Z,100697.38
2022-11-01T17:09:03.980Z,100697.22
2022-11-01T17:14:05.686Z,100706.31
2022-11-01T17:19:07.896Z,100716.03
2022-11-01T17:24:09.892Z,100723.00
2022-11-01T17:29:14.578Z,100737.94
2022-11-01T17:34:16.479Z,100748.44
2022-11-01T17:39:18.252Z,100759.78
2022-11-01T17:44:19.780Z,100759.56
2022-11-01T17:49:23.687Z,100760.13
2022-11-01T17:59:28.619Z,100775.44
2022-11-01T18:04:35.516Z,100782.13
2022-11-01T18:09:39.384Z,100785.88
2022-11-01T18:14:46.786Z,100795.69
2022-11-01T18:19:57.395Z,100801.72
2022-11-01T18:25:18.137Z,100806.09
2022-11-01T18:30:20.719Z,100803.09
2022-11-01T18:35:47.092Z,100796.34
2022-11-01T18:41:02.987Z,100794.22
2022-11-01T18:46:29.125Z,100798.63
2022-11-01T18:51:33.438Z,100804.88
2022-11-01T18:56:39.503Z,100815.84
2022-11-01T19:01:41.148Z,100803.34
2022-11-01T19:06:42.924Z,100806.34
2022-11-01T19:11:44.538Z,100809.00
2022-11-01T19:16:46.161Z,100810.44
2022-11-01T19:21:47.742Z,100806.31
2022-11-01T19:26:49.352Z,100798.00
2022-11-01T19:31:55.028Z,100801.88
2022-11-01T19:37:02.409Z,100801.44
2022-11-01T19:42:18.405Z,100793.69
2022-11-01T19:47:29.991Z,100802.38
2022-11-01T19:52:37.727Z,100806.38
2022-11-01T19:57:42.333Z,100804.72
2022-11-01T20:02:48.817Z,100812.50
2022-11-01T20:07:50.852Z,100816.69
2022-11-01T20:12:52.387Z,100819.69
2022-11-01T20:17:54.425Z,100823.13
2022-11-01T20:23:20.503Z,100829.72
2022-11-01T20:28:18.116Z,100832.16
2022-11-01T20:33:19.682Z,100832.09
2022-11-01T20:38:21.305Z,100845.63
2022-11-01T20:43:23.951Z,100847.03
2022-11-01T20:48:25.902Z,100843.22
2022-11-01T20:53:29.822Z,100855.88
2022-11-01T20:58:31.537Z,100855.88
2022-11-01T21:03:34.022Z,100867.22
2022-11-01T21:08:36.702Z,100871.91
2022-11-01T21:13:45.685Z,100875.53
2022-11-01T21:18:47.316Z,100880.72
2022-11-01T21:23:49.032Z,100878.44
2022-11-01T21:28:55.767Z,100876.00
2022-11-01T21:34:10.060Z,100875.53
2022-11-01T21:39:18.599Z,100882.75
2022-11-01T21:44:22.898Z,100893.34
2022-11-01T21:49:32.248Z,100886.56
2022-11-01T21:54:36.088Z,100883.94
2022-11-01T21:59:37.732Z,100891.34
2022-11-01T22:04:39.806Z,100902.25
2022-11-01T22:09:41.353Z,100901.78
2022-11-01T22:14:42.891Z,100898.41
2022-11-01T22:19:44.423Z,100904.03
2022-11-01T22:24:46.022Z,100897.63
2022-11-01T22:29:47.619Z,100899.31
2022-11-01T22:34:49.175Z,100908.13
2022-11-01T22:39:53.077Z,100913.25
2022-11-01T22:44:55.457Z,100905.50
2022-11-01T22:50:02.831Z,100912.50
2022-11-01T22:55:10.293Z,100912.00
2022-11-01T23:00:34.776Z,100910.66
2022-11-01T23:05:37.054Z,100908.63
2022-11-01T23:10:38.579Z,100921.31
2022-11-01T23:15:40.172Z,100918.03
2022-11-01T23:20:42.924Z,100917.63
2022-11-01T23:25:44.766Z,100920.56
2022-11-01T23:30:48.011Z,100912.94
2022-11-01T23:35:54.672Z,100913.78
2022-11-01T23:40:57.470Z,100913.00
2022-11-01T23:45:59.563Z,100910.53
2022-11-01T23:51:01.256Z,100910.41
2022-11-01T23:56:06.915Z,100912.16
